Time;durP1;ratioP1;P1;durP2;ratioP2;P2;SDS_P1;SDS_P2;PMS_P1;PMS_P2;Temp;Humidity;BMP_temperature;BMP_pressure;BME280_temperature;BME280_humidity;BME280_pressure;Samples;Min_cycle;Max_cycle;Signal;HPM_P1;HPM_P2
2022/11/06 00:00:51;;;;;;;;;;;;;;;14.52;58.72;99105.59;4466995;32;34930;-85
2022/11/06 00:03:19;;;;;;;;;;;;;;;14.68;58.74;99114.22;4467709;32;34847;-87
2022/11/06 00:08:33;;;;;;;;;;;;;;;14.53;58.80;99117.75;4467674;32;34007;-86
2022/11/06 00:11:01;;;;;;;;;;;;;;;14.97;57.57;99121.91;4452703;32;34308;-84
2022/11/06 00:13:28;;;;;;;;;;;;;;;15.55;55.46;99110.16;4470676;32;35116;-87
2022/11/06 00:15:55;;;;;;;;;;;;;;;15.60;55.26;99113.59;4468401;32;33745;-85
2022/11/06 00:18:24;;;;;;;;;;;;;;;15.05;56.54;99117.50;4467540;32;33884;-86
2022/11/06 00:20:51;;;;;;;;;;;;;;;15.05;57.03;99122.72;4466849;32;34505;-84
2022/11/06 00:23:18;;;;;;;;;;;;;;;14.57;58.68;99122.06;4467789;32;34154;-87
2022/11/06 00:25:45;;;;;;;;;;;;;;;14.72;58.23;99118.53;4447690;32;34021;-86
2022/11/06 00:28:13;;;;;;;;;;;;;;;14.71;58.17;99121.16;4465599;32;35079;-85
2022/11/06 00:30:41;;;;;;;;;;;;;;;14.74;57.98;99119.41;4474261;32;34436;-85
2022/11/06 00:33:09;;;;;;;;;;;;;;;14.70;58.21;99122.00;4483511;32;34076;-86
2022/11/06 00:35:37;;;;;;;;;;;;;;;15.32;56.45;99111.22;4470877;32;34355;-86
2022/11/06 00:38:05;;;;;;;;;;;;;;;15.38;56.36;99109.41;4467234;32;33951;-85
2022/11/06 00:40:32;;;;;;;;;;;;;;;15.56;55.71;99099.69;4453242;32;34397;-85
2022/11/06 00:42:59;;;;;;;;;;;;;;;14.40;59.19;99110.81;4467370;32;35281;-86
2022/11/06 00:45:26;;;;;;;;;;;;;;;14.10;59.98;99112.66;4468342;32;34148;-86
2022/11/06 00:47:54;;;;;;;;;;;;;;;15.54;55.65;99117.16;4477560;32;34538;-86
2022/11/06 00:50:25;;;;;;;;;;;;;;;15.67;55.56;99109.22;4466816;32;34146;-87
2022/11/06 00:52:53;;;;;;;;;;;;;;;16.15;54.00;99101.78;4451812;32;34175;-85
2022/11/06 00:55:20;;;;;;;;;;;;;;;14.90;57.44;99114.09;4452161;32;34216;-85
2022/11/06 00:57:47;;;;;;;;;;;;;;;15.46;56.05;99111.13;4461190;32;34140;-85
2022/11/06 01:00:16;;;;;;;;;;;;;;;15.53;55.92;99110.19;4466968;32;34399;-85
2022/11/06 01:02:44;;;;;;;;;;;;;;;15.60;55.81;99107.50;4452044;32;33871;-86
2022/11/06 01:05:12;;;;;;;;;;;;;;;15.67;55.55;99112.69;4466695;32;34433;-85
2022/11/06 01:07:39;;;;;;;;;;;;;;;16.15;54.39;99107.03;4466818;32;34064;-87
2022/11/06 01:10:07;;;;;;;;;;;;;;;15.76;55.20;99109.16;4466401;32;34761;-87
2022/11/06 01:12:34;;;;;;;;;;;;;;;15.61;55.67;99115.34;4466927;32;35074;-88
2022/11/06 01:15:01;;;;;;;;;;;;;;;16.07;54.63;99125.41;4468975;32;33622;-87
2022/11/06 01:17:28;;;;;;;;;;;;;;;16.04;54.25;99115.84;4469411;32;34277;-88
2022/11/06 01:19:56;;;;;;;;;;;;;;;15.86;54.68;99118.63;4466449;32;35549;-85
2022/11/06 01:22:23;;;;;;;;;;;;;;;16.14;53.87;99120.97;4466437;32;34214;-87
2022/11/06 01:24:50;;;;;;;;;;;;;;;15.46;55.84;99131.16;4466751;32;32978;-86
2022/11/06 01:27:17;;;;;;;;;;;;;;;15.24;56.46;99126.06;4449792;32;33814;-87
2022/11/06 01:29:54;;;;;;;;;;;;;;;14.93;57.51;99124.53;4475278;32;34218;-87
2022/11/06 01:32:21;;;;;;;;;;;;;;;15.31;56.36;99121.69;4470397;32;35024;-86
2022/11/06 01:34:49;;;;;;;;;;;;;;;15.48;56.10;99124.16;4468167;32;34238;-84
2022/11/06 01:37:16;;;;;;;;;;;;;;;15.81;55.26;99118.69;4463641;32;34156;-88
2022/11/06 01:39:43;;;;;;;;;;;;;;;15.60;55.75;99117.97;4439127;32;34463;-86
2022/11/06 01:42:11;;;;;;;;;;;;;;;15.39;56.42;99117.28;4463687;32;33437;-88
2022/11/06 01:44:42;;;;;;;;;;;;;;;15.49;56.15;99116.31;4459470;32;33339;-88
2022/11/06 01:47:18;;;;;;;;;;;;;;;15.31;56.65;99113.84;4468474;32;35005;-88
2022/11/06 01:49:45;;;;;;;;;;;;;;;14.91;57.66;99121.91;4468708;32;34427;-84
2022/11/06 01:52:13;;;;;;;;;;;;;;;15.73;55.61;99117.03;4453677;32;34115;-86
2022/11/06 01:54:40;;;;;;;;;;;;;;;15.56;56.17;99117.13;4468268;32;33440;-87
2022/11/06 01:57:08;;;;;;;;;;;;;;;15.60;55.97;99118.81;4454150;32;35108;-85
2022/11/06 01:59:36;;;;;;;;;;;;;;;15.22;57.13;99124.34;4454145;32;34572;-85
2022/11/06 02:02:04;;;;;;;;;;;;;;;15.27;56.71;99125.19;4468326;32;34386;-85
2022/11/06 02:04:32;;;;;;;;;;;;;;;15.48;56.46;99129.38;4468139;32;33532;-86
2022/11/06 02:06:59;;;;;;;;;;;;;;;15.82;55.11;99124.78;4468669;32;34887;-88
2022/11/06 02:09:27;;;;;;;;;;;;;;;15.94;55.02;99129.88;4454366;32;35141;-86
2022/11/06 02:11:57;;;;;;;;;;;;;;;15.17;57.12;99137.44;4454167;32;34528;-85
2022/11/06 02:14:32;;;;;;;;;;;;;;;16.09;54.60;99128.00;4468765;32;33473;-86
2022/11/06 02:17:10;;;;;;;;;;;;;;;15.39;56.35;99130.31;4453473;32;34900;-85
2022/11/06 02:19:57;;;;;;;;;;;;;;;15.79;55.33;99128.28;4467737;32;34272;-87
2022/11/06 02:22:34;;;;;;;;;;;;;;;15.90;54.98;99137.78;4468132;32;33995;-87
2022/11/06 02:25:20;;;;;;;;;;;;;;;15.21;56.78;99146.13;4466271;32;34435;-88
2022/11/06 02:27:53;;;;;;;;;;;;;;;14.00;60.55;99142.19;4468248;32;34163;-87
2022/11/06 02:30:20;;;;;;;;;;;;;;;15.06;57.62;99141.84;4453339;32;34504;-88
2022/11/06 02:32:50;;;;;;;;;;;;;;;15.09;57.49;99149.69;4453355;32;35111;-86
2022/11/06 02:35:28;;;;;;;;;;;;;;;14.87;57.75;99145.44;4462789;32;34380;-85
2022/11/06 02:37:57;;;;;;;;;;;;;;;14.26;59.65;99149.09;4453678;32;34739;-88
2022/11/06 02:40:25;;;;;;;;;;;;;;;15.00;57.98;99157.53;4453561;32;34463;-87
2022/11/06 02:42:53;;;;;;;;;;;;;;;15.11;57.59;99154.87;4453614;32;35045;-84
2022/11/06 02:45:20;;;;;;;;;;;;;;;15.70;55.95;99158.88;4452987;32;32158;-88
2022/11/06 02:47:48;;;;;;;;;;;;;;;15.58;56.06;99165.88;4453848;32;34159;-87
2022/11/06 02:50:17;;;;;;;;;;;;;;;15.70;55.87;99162.34;4454114;32;34502;-87
2022/11/06 02:52:55;;;;;;;;;;;;;;;15.66;55.51;99170.22;4453358;32;34567;-85
2022/11/06 02:55:24;;;;;;;;;;;;;;;15.88;55.18;99165.69;4449102;32;33547;-86
2022/11/06 02:57:53;;;;;;;;;;;;;;;15.49;55.78;99165.97;4442620;32;33879;-87
2022/11/06 03:00:22;;;;;;;;;;;;;;;15.49;56.21;99175.53;4459167;32;34214;-87
2022/11/06 03:02:59;;;;;;;;;;;;;;;15.56;55.81;99172.84;4453536;32;34204;-87
2022/11/06 03:05:59;;;;;;;;;;;;;;;14.93;58.02;99176.75;4467728;32;34489;-89
2022/11/06 03:08:32;;;;;;;;;;;;;;;14.38;59.55;99171.69;4449914;32;34022;-87
2022/11/06 03:11:05;;;;;;;;;;;;;;;14.95;57.77;99172.38;4468037;32;35231;-87
2022/11/06 03:13:32;;;;;;;;;;;;;;;15.12;57.12;99174.91;4462663;32;35410;-87
2022/11/06 03:16:03;;;;;;;;;;;;;;;15.00;57.33;99183.66;4466873;32;33564;-86
2022/11/06 03:18:50;;;;;;;;;;;;;;;15.35;56.65;99180.00;4462371;32;33745;-87
2022/11/06 03:21:20;;;;;;;;;;;;;;;15.00;57.75;99187.16;4467865;32;34262;-88
2022/11/06 03:23:54;;;;;;;;;;;;;;;15.41;56.49;99188.62;4453151;32;34365;-86
2022/11/06 03:26:22;;;;;;;;;;;;;;;15.33;56.96;99196.53;4467420;32;33607;-89
2022/11/06 03:28:53;;;;;;;;;;;;;;;15.86;55.27;99189.22;4467851;32;35107;-87
2022/11/06 03:31:28;;;;;;;;;;;;;;;15.67;55.50;99191.09;4452764;32;34356;-89
2022/11/06 03:34:00;;;;;;;;;;;;;;;15.23;57.04;99200.09;4467930;32;34893;-86
2022/11/06 03:36:30;;;;;;;;;;;;;;;14.88;58.20;99201.97;4467198;32;34022;-86
2022/11/06 03:38:58;;;;;;;;;;;;;;;15.42;56.66;99203.47;4452887;32;35020;-88
2022/11/06 03:41:28;;;;;;;;;;;;;;;14.38;59.58;99203.84;4453800;32;35138;-87
2022/11/06 03:43:56;;;;;;;;;;;;;;;15.03;57.26;99202.78;4453405;32;34473;-88
2022/11/06 03:46:24;;;;;;;;;;;;;;;14.49;59.10;99209.94;4467179;32;33437;-87
2022/11/06 03:48:52;;;;;;;;;;;;;;;15.19;57.33;99211.44;4467709;32;34089;-86
2022/11/06 03:51:42;;;;;;;;;;;;;;;15.57;56.14;99207.72;4467739;32;35091;-88
2022/11/06 03:54:13;;;;;;;;;;;;;;;15.85;55.41;99204.94;4461048;32;34464;-88
2022/11/06 03:56:47;;;;;;;;;;;;;;;15.41;56.36;99206.06;4464491;32;33190;-88
2022/11/06 03:59:18;;;;;;;;;;;;;;;14.96;57.72;99216.72;4453720;32;34009;-87
2022/11/06 04:01:45;;;;;;;;;;;;;;;15.92;55.08;99211.84;4468047;32;34392;-86
2022/11/06 04:04:15;;;;;;;;;;;;;;;15.72;55.42;99214.59;4454061;32;34131;-86
2022/11/06 04:06:45;;;;;;;;;;;;;;;15.18;56.99;99219.25;4452575;32;34496;-88
2022/11/06 04:14:45;;;;;;;;;;;;;;;15.55;55.84;99220.78;4467999;32;34625;-88
2022/11/06 04:17:13;;;;;;;;;;;;;;;15.67;55.50;99219.84;4445235;32;34246;-87
2022/11/06 04:19:46;;;;;;;;;;;;;;;15.30;56.56;99213.97;4437991;32;34312;-88
2022/11/06 04:22:39;;;;;;;;;;;;;;;15.37;56.45;99217.41;4452210;32;35409;-88
2022/11/06 04:28:18;;;;;;;;;;;;;;;15.93;54.69;99209.22;4451815;32;34130;-86
2022/11/06 04:30:53;;;;;;;;;;;;;;;15.16;56.85;99221.88;4438102;32;34170;-86
2022/11/06 04:33:20;;;;;;;;;;;;;;;14.75;57.94;99220.31;4451803;32;34146;-86
2022/11/06 04:35:47;;;;;;;;;;;;;;;14.59;58.20;99218.63;4461051;32;34150;-86
2022/11/06 04:38:18;;;;;;;;;;;;;;;14.71;58.24;99218.59;4467555;32;33380;-86
2022/11/06 04:40:58;;;;;;;;;;;;;;;15.17;56.76;99212.31;4453156;32;33769;-85
2022/11/06 04:43:34;;;;;;;;;;;;;;;14.88;57.55;99215.91;4454888;32;34198;-86
2022/11/06 04:46:02;;;;;;;;;;;;;;;15.00;56.87;99218.47;4462301;32;35328;-85
2022/11/06 04:48:29;;;;;;;;;;;;;;;14.10;60.18;99219.53;4453076;32;34506;-87
2022/11/06 04:50:58;;;;;;;;;;;;;;;14.79;58.10;99224.63;4453299;32;35103;-87
2022/11/06 04:53:25;;;;;;;;;;;;;;;14.72;58.16;99222.91;4453060;32;35243;-86
2022/11/06 04:55:53;;;;;;;;;;;;;;;15.02;57.27;99223.69;4457903;32;35221;-88
2022/11/06 04:58:21;;;;;;;;;;;;;;;15.19;56.40;99226.19;4468802;32;34305;-87
2022/11/06 05:00:48;;;;;;;;;;;;;;;14.39;59.12;99223.81;4468737;32;34327;-86
2022/11/06 05:03:16;;;;;;;;;;;;;;;14.30;59.43;99227.31;4483015;32;34350;-86
2022/11/06 05:05:43;;;;;;;;;;;;;;;15.22;56.54;99220.97;4472704;32;34041;-86
2022/11/06 05:08:14;;;;;;;;;;;;;;;14.71;58.00;99223.78;4467066;32;33201;-87
2022/11/06 05:10:43;;;;;;;;;;;;;;;15.19;56.67;99220.97;4472685;32;34999;-87
2022/11/06 05:13:11;;;;;;;;;;;;;;;14.68;58.01;99217.72;4457768;32;34974;-87
2022/11/06 05:15:38;;;;;;;;;;;;;;;14.05;59.92;99230.81;4466311;32;35081;-88
2022/11/06 05:18:05;;;;;;;;;;;;;;;14.22;59.53;99225.59;4467136;32;33709;-84
2022/11/06 05:20:33;;;;;;;;;;;;;;;15.13;56.81;99226.25;4452934;32;34061;-84
2022/11/06 05:23:00;;;;;;;;;;;;;;;14.75;57.75;99225.53;4462288;32;34017;-85
2022/11/06 05:25:27;;;;;;;;;;;;;;;14.82;57.66;99232.47;4465899;32;34520;-86
2022/11/06 05:27:54;;;;;;;;;;;;;;;14.99;57.02;99228.91;4467006;32;33733;-88
2022/11/06 05:30:22;;;;;;;;;;;;;;;15.36;55.83;99237.44;4466882;32;34806;-88
2022/11/06 05:32:49;;;;;;;;;;;;;;;14.54;58.19;99233.41;4466883;32;35339;-88
2022/11/06 05:35:17;;;;;;;;;;;;;;;13.52;61.72;99248.13;4462827;32;34967;-85
2022/11/06 05:37:44;;;;;;;;;;;;;;;14.01;59.87;99244.72;4466880;32;33366;-88
2022/11/06 05:40:11;;;;;;;;;;;;;;;14.42;58.74;99249.03;4466752;32;34327;-88
2022/11/06 05:42:39;;;;;;;;;;;;;;;14.40;58.76;99249.06;4466792;32;34383;-86
2022/11/06 05:45:06;;;;;;;;;;;;;;;15.09;56.66;99257.59;4466344;32;35248;-85
2022/11/06 05:47:33;;;;;;;;;;;;;;;14.68;57.63;99249.91;4466376;32;33732;-86
2022/11/06 05:50:01;;;;;;;;;;;;;;;14.28;58.92;99262.97;4466718;32;35014;-89
2022/11/06 05:52:28;;;;;;;;;;;;;;;14.43;58.88;99262.06;4466487;32;35281;-87
2022/11/06 05:54:55;;;;;;;;;;;;;;;15.20;56.42;99259.31;4466074;32;34239;-87
2022/11/06 05:57:22;;;;;;;;;;;;;;;14.79;57.55;99271.63;4466530;32;33704;-88
2022/11/06 05:59:50;;;;;;;;;;;;;;;14.99;56.95;99268.94;4465754;32;35173;-88
2022/11/06 06:02:17;;;;;;;;;;;;;;;14.73;57.83;99269.00;4465675;32;35295;-87
2022/11/06 06:04:44;;;;;;;;;;;;;;;15.66;55.34;99277.37;4465851;32;33902;-86
2022/11/06 06:07:11;;;;;;;;;;;;;;;15.50;55.66;99287.88;4469998;32;34209;-85
2022/11/06 06:09:38;;;;;;;;;;;;;;;15.55;55.37;99290.47;4466701;32;34473;-86
2022/11/06 06:12:06;;;;;;;;;;;;;;;14.52;58.25;99293.41;4452081;32;33485;-87
2022/11/06 06:14:34;;;;;;;;;;;;;;;15.32;56.00;99293.19;4447289;32;34290;-86
2022/11/06 06:17:01;;;;;;;;;;;;;;;14.89;57.27;99292.47;4451686;32;34660;-85
2022/11/06 06:19:28;;;;;;;;;;;;;;;14.83;57.33;99296.84;4453350;32;33636;-86
2022/11/06 06:21:55;;;;;;;;;;;;;;;15.13;56.69;99296.75;4461877;32;33827;-86
2022/11/06 06:24:24;;;;;;;;;;;;;;;14.64;58.05;99299.50;4478420;32;35346;-86
2022/11/06 06:26:51;;;;;;;;;;;;;;;14.90;57.62;99302.91;4457648;32;33722;-87
2022/11/06 06:29:18;;;;;;;;;;;;;;;14.69;58.15;99302.94;4453674;32;33623;-86
2022/11/06 06:31:45;;;;;;;;;;;;;;;14.09;59.78;99303.84;4469099;32;34089;-86
2022/11/06 06:34:13;;;;;;;;;;;;;;;15.24;56.61;99310.66;4468254;32;35316;-86
2022/11/06 06:36:40;;;;;;;;;;;;;;;15.49;55.60;99311.38;4468283;32;33156;-88
2022/11/06 06:39:07;;;;;;;;;;;;;;;14.81;57.82;99311.66;4468420;32;34865;-86
2022/11/06 06:41:35;;;;;;;;;;;;;;;14.56;58.32;99312.53;4453483;32;34450;-87
2022/11/06 06:44:02;;;;;;;;;;;;;;;14.26;59.50;99318.59;4467859;32;34072;-87
2022/11/06 06:46:29;;;;;;;;;;;;;;;14.43;58.91;99324.69;4468263;32;33722;-88
2022/11/06 06:48:56;;;;;;;;;;;;;;;13.53;61.56;99333.25;4469116;32;33260;-85
2022/11/06 06:51:23;;;;;;;;;;;;;;;14.23;59.71;99337.72;4476610;32;33904;-86
2022/11/06 06:56:36;;;;;;;;;;;;;;;14.09;59.93;99339.44;4474779;32;33345;-86
2022/11/06 06:59:04;;;;;;;;;;;;;;;14.51;58.80;99338.66;4479190;32;33901;-84
2022/11/06 07:01:31;;;;;;;;;;;;;;;14.25;59.43;99343.81;4459857;32;35334;-87
2022/11/06 07:03:59;;;;;;;;;;;;;;;14.59;58.43;99344.72;4453409;32;34337;-84
2022/11/06 07:06:31;;;;;;;;;;;;;;;15.41;56.28;99347.13;4468024;32;33450;-88
2022/11/06 07:08:58;;;;;;;;;;;;;;;15.27;56.23;99339.38;4454088;32;34200;-85
2022/11/06 07:11:25;;;;;;;;;;;;;;;14.68;57.92;99343.84;4467992;32;35154;-86
2022/11/06 07:13:52;;;;;;;;;;;;;;;14.09;59.38;99342.94;4466410;32;35313;-88
2022/11/06 07:16:20;;;;;;;;;;;;;;;14.62;58.29;99349.03;4463489;32;33724;-84
2022/11/06 07:18:48;;;;;;;;;;;;;;;13.96;60.45;99350.72;4473779;32;34803;-85
2022/11/06 07:21:15;;;;;;;;;;;;;;;14.74;57.87;99349.06;4467961;32;35235;-89
2022/11/06 07:23:42;;;;;;;;;;;;;;;15.02;57.18;99349.88;4467973;32;35316;-86
2022/11/06 07:26:09;;;;;;;;;;;;;;;15.65;54.88;99348.78;4468012;32;33654;-89
2022/11/06 07:28:36;;;;;;;;;;;;;;;15.20;56.24;99354.19;4465196;32;34002;-84
2022/11/06 07:31:05;;;;;;;;;;;;;;;14.49;58.34;99357.72;4462402;32;34016;-86
2022/11/06 07:33:32;;;;;;;;;;;;;;;13.74;60.70;99371.50;4451116;32;34030;-85
2022/11/06 07:36:10;;;;;;;;;;;;;;;14.20;59.84;99362.91;4465559;32;32947;-85
2022/11/06 07:38:38;;;;;;;;;;;;;;;14.67;58.43;99362.13;4455214;32;33889;-87
2022/11/06 07:41:07;;;;;;;;;;;;;;;14.57;58.49;99359.50;4465307;32;33795;-86
2022/11/06 07:43:34;;;;;;;;;;;;;;;14.30;59.08;99367.28;4466108;32;34447;-88
2022/11/06 07:46:03;;;;;;;;;;;;;;;14.88;57.54;99369.91;4467848;32;33614;-87
2022/11/06 07:48:30;;;;;;;;;;;;;;;14.82;57.59;99367.31;4467854;32;33826;-85
2022/11/06 07:50:57;;;;;;;;;;;;;;;14.79;57.73;99369.94;4467521;32;34901;-85
2022/11/06 07:53:25;;;;;;;;;;;;;;;14.61;57.97;99370.81;4467442;32;35077;-85
2022/11/06 07:55:53;;;;;;;;;;;;;;;14.16;59.66;99377.69;4467600;32;34482;-85
2022/11/06 07:58:20;;;;;;;;;;;;;;;14.70;58.10;99373.44;4467988;32;34989;-85
2022/11/06 08:00:48;;;;;;;;;;;;;;;13.78;60.53;99375.84;4462658;32;35293;-84
2022/11/06 08:03:15;;;;;;;;;;;;;;;14.17;59.80;99376.84;4455962;32;34045;-85
2022/11/06 08:05:43;;;;;;;;;;;;;;;13.59;61.95;99376.66;4458946;32;33445;-86
2022/11/06 08:08:10;;;;;;;;;;;;;;;14.18;59.95;99368.16;4457544;32;34287;-87
2022/11/06 08:10:39;;;;;;;;;;;;;;;14.07;60.09;99375.06;4452077;32;34381;-86
2022/11/06 08:13:06;;;;;;;;;;;;;;;14.23;59.61;99373.38;4452162;32;34629;-90
2022/11/06 08:15:33;;;;;;;;;;;;;;;14.90;57.96;99369.91;4451853;32;33932;-85
2022/11/06 08:18:01;;;;;;;;;;;;;;;15.20;56.83;99374.22;4438945;32;33333;-85
2022/11/06 08:20:28;;;;;;;;;;;;;;;15.34;56.00;99367.19;4454599;32;34215;-84
2022/11/06 08:22:59;;;;;;;;;;;;;;;15.29;56.49;99368.94;4451891;32;34063;-87
2022/11/06 08:25:26;;;;;;;;;;;;;;;15.20;56.85;99363.75;4453316;32;34125;-87
2022/11/06 08:27:54;;;;;;;;;;;;;;;15.14;56.81;99379.44;4459388;32;35128;-87
2022/11/06 08:30:21;;;;;;;;;;;;;;;14.86;57.87;99373.41;4451790;32;35306;-85
2022/11/06 08:32:49;;;;;;;;;;;;;;;15.34;56.58;99372.41;4452796;32;35407;-86
2022/11/06 08:35:17;;;;;;;;;;;;;;;15.66;55.61;99379.31;4460802;32;33323;-85
2022/11/06 08:37:44;;;;;;;;;;;;;;;15.86;54.93;99376.59;4452550;32;34506;-84
2022/11/06 08:40:12;;;;;;;;;;;;;;;15.40;56.27;99374.16;4447877;32;34474;-86
2022/11/06 08:42:39;;;;;;;;;;;;;;;15.38;56.37;99374.16;4467392;32;35098;-84
2022/11/06 08:45:06;;;;;;;;;;;;;;;14.28;59.36;99379.44;4461676;32;34303;-86
2022/11/06 08:47:34;;;;;;;;;;;;;;;14.06;60.27;99376.81;4467425;32;34877;-87
2022/11/06 08:50:01;;;;;;;;;;;;;;;15.32;56.53;99367.19;4462227;32;34350;-86
2022/11/06 08:52:28;;;;;;;;;;;;;;;15.52;56.21;99371.47;4450945;32;34569;-88
2022/11/06 08:55:00;;;;;;;;;;;;;;;14.90;57.83;99372.53;4444496;32;35121;-87
2022/11/06 08:57:28;;;;;;;;;;;;;;;15.66;55.75;99374.94;4451573;32;34541;-87
2022/11/06 08:59:55;;;;;;;;;;;;;;;15.37;56.60;99371.53;4463026;32;33924;-85
2022/11/06 09:02:22;;;;;;;;;;;;;;;15.03;58.00;99371.62;4469071;32;34838;-85
2022/11/06 09:04:49;;;;;;;;;;;;;;;15.12;57.73;99384.69;4462248;32;33370;-86
2022/11/06 09:07:17;;;;;;;;;;;;;;;15.69;56.23;99380.16;4452245;32;34062;-89
2022/11/06 09:09:44;;;;;;;;;;;;;;;14.86;58.64;99374.28;4458475;32;34549;-85
2022/11/06 09:12:11;;;;;;;;;;;;;;;15.69;56.41;99376.69;4465591;32;35356;-84
2022/11/06 09:14:39;;;;;;;;;;;;;;;15.71;56.25;99372.31;4463882;32;33850;-86
2022/11/06 09:17:06;;;;;;;;;;;;;;;16.10;55.42;99370.34;4475946;32;34997;-88
2022/11/06 09:19:33;;;;;;;;;;;;;;;16.00;55.63;99373.03;4481131;32;35185;-86
2022/11/06 09:22:00;;;;;;;;;;;;;;;15.20;58.02;99363.75;4466395;32;34398;-87
2022/11/06 09:24:28;;;;;;;;;;;;;;;15.89;56.15;99366.97;4466099;32;34383;-86
2022/11/06 09:27:15;;;;;;;;;;;;;;;16.21;55.29;99361.56;4466070;32;34255;-86
2022/11/06 09:29:43;;;;;;;;;;;;;;;16.95;52.78;99359.22;4461912;32;32998;-84
2022/11/06 09:32:10;;;;;;;;;;;;;;;17.26;51.82;99357.12;4460345;32;33202;-85
2022/11/06 09:34:37;;;;;;;;;;;;;;;17.26;51.46;99351.88;4460850;32;34302;-85
2022/11/06 09:37:05;;;;;;;;;;;;;;;17.37;51.92;99356.16;4464290;32;32754;-87
2022/11/06 09:39:32;;;;;;;;;;;;;;;17.17;52.48;99349.38;4461722;32;33808;-86
2022/11/06 09:42:00;;;;;;;;;;;;;;;17.34;52.43;99351.81;4461098;32;34584;-85
2022/11/06 09:44:36;;;;;;;;;;;;;;;17.78;51.48;99352.19;4447684;32;33241;-85
2022/11/06 09:47:05;;;;;;;;;;;;;;;17.93;50.68;99347.59;4459877;32;34069;-87
2022/11/06 09:49:36;;;;;;;;;;;;;;;17.57;51.56;99353.28;4461770;32;35385;-86
2022/11/06 09:52:11;;;;;;;;;;;;;;;17.61;51.86;99358.47;4447196;32;32202;-85
2022/11/06 09:54:42;;;;;;;;;;;;;;;17.66;51.56;99353.19;4449881;32;33451;-85
2022/11/06 09:57:24;;;;;;;;;;;;;;;17.23;52.83;99351.06;4453815;32;33501;-84
2022/11/06 09:59:51;;;;;;;;;;;;;;;17.47;51.95;99349.91;4466830;32;33127;-85
2022/11/06 10:02:31;;;;;;;;;;;;;;;17.54;51.79;99348.97;4467700;32;34319;-85
2022/11/06 10:05:18;;;;;;;;;;;;;;;17.48;52.19;99349.03;4443702;32;34926;-86
2022/11/06 10:07:45;;;;;;;;;;;;;;;17.69;51.82;99346.13;4463984;32;34877;-84
2022/11/06 10:10:16;;;;;;;;;;;;;;;17.62;52.38;99346.25;4463112;32;35232;-85
2022/11/06 10:13:02;;;;;;;;;;;;;;;17.97;52.00;99345.78;4464107;32;34262;-87
2022/11/06 10:15:33;;;;;;;;;;;;;;;17.92;51.39;99343.25;4464189;32;33682;-86
2022/11/06 10:18:09;;;;;;;;;;;;;;;18.28;50.34;99335.69;4441099;32;32411;-85
2022/11/06 10:20:40;;;;;;;;;;;;;;;17.72;51.12;99342.59;4453333;32;35115;-85
2022/11/06 10:23:14;;;;;;;;;;;;;;;17.57;52.62;99342.78;4463612;32;34161;-85
2022/11/06 10:25:43;;;;;;;;;;;;;;;17.82;51.43;99331.13;4450745;32;33532;-90
2022/11/06 10:28:29;;;;;;;;;;;;;;;17.98;51.46;99337.00;4467646;32;33903;-86
2022/11/06 10:31:02;;;;;;;;;;;;;;;17.21;53.49;99335.38;4465178;32;34078;-84
2022/11/06 10:33:33;;;;;;;;;;;;;;;17.50;53.40;99348.13;4452971;32;35029;-85
2022/11/06 10:36:02;;;;;;;;;;;;;;;17.99;52.42;99339.63;4478733;32;33225;-85
2022/11/06 10:38:33;;;;;;;;;;;;;;;17.91;52.48;99338.00;4479878;32;34158;-87
2022/11/06 10:41:00;;;;;;;;;;;;;;;18.03;52.14;99334.31;4446941;32;34002;-85
2022/11/06 10:43:31;;;;;;;;;;;;;;;18.66;49.95;99319.28;4448808;32;34732;-86
2022/11/06 10:46:10;;;;;;;;;;;;;;;18.65;49.80;99321.97;4466337;32;34247;-85
2022/11/06 10:48:39;;;;;;;;;;;;;;;18.58;50.41;99330.84;4460149;32;34246;-87
2022/11/06 10:51:13;;;;;;;;;;;;;;;18.74;49.66;99332.31;4443498;32;34105;-88
2022/11/06 10:54:00;;;;;;;;;;;;;;;18.80;50.17;99326.97;4465818;32;34616;-86
2022/11/06 10:56:46;;;;;;;;;;;;;;;18.26;51.44;99323.47;4453447;32;34468;-87
2022/11/06 10:59:13;;;;;;;;;;;;;;;18.81;49.89;99323.44;4467381;32;34783;-85
2022/11/06 11:01:41;;;;;;;;;;;;;;;19.13;48.85;99314.97;4460767;32;34467;-88
2022/11/06 11:04:08;;;;;;;;;;;;;;;18.42;50.64;99309.22;4469688;32;34921;-86
2022/11/06 11:06:40;;;;;;;;;;;;;;;17.74;52.59;99310.22;4460912;32;34057;-85
2022/11/06 11:09:28;;;;;;;;;;;;;;;18.29;51.68;99305.91;4444564;32;33699;-87
2022/11/06 11:11:55;;;;;;;;;;;;;;;18.29;51.96;99303.28;4458108;32;34528;-86
2022/11/06 11:14:24;;;;;;;;;;;;;;;18.68;50.33;99306.16;4457800;32;34125;-84
2022/11/06 11:16:51;;;;;;;;;;;;;;;18.95;49.65;99299.56;4446796;32;34071;-88
2022/11/06 11:19:45;;;;;;;;;;;;;;;18.48;51.20;99303.84;4451156;32;34175;-86
2022/11/06 11:22:17;;;;;;;;;;;;;;;18.33;51.68;99304.97;4465085;32;35184;-89
2022/11/06 11:24:57;;;;;;;;;;;;;;;18.83;50.03;99305.91;4447339;32;34442;-84
2022/11/06 11:27:24;;;;;;;;;;;;;;;18.57;51.04;99314.22;4444123;32;33415;-88
2022/11/06 11:29:51;;;;;;;;;;;;;;;18.18;52.00;99311.38;4458743;32;35703;-84
2022/11/06 11:32:19;;;;;;;;;;;;;;;18.27;51.58;99314.72;4445885;32;33711;-83
2022/11/06 11:34:48;;;;;;;;;;;;;;;18.52;51.38;99315.16;4460998;32;34459;-86
2022/11/06 11:37:32;;;;;;;;;;;;;;;18.65;51.02;99309.69;4450607;32;34122;-83
2022/11/06 11:40:19;;;;;;;;;;;;;;;18.67;51.11;99304.41;4451782;32;33984;-88
2022/11/06 11:42:48;;;;;;;;;;;;;;;18.81;50.77;99306.81;4446205;32;34380;-86
2022/11/06 11:45:16;;;;;;;;;;;;;;;18.90;50.65;99302.28;4446148;32;34426;-85
2022/11/06 11:47:46;;;;;;;;;;;;;;;18.99;50.39;99309.09;4460340;32;32960;-85
2022/11/06 11:50:17;;;;;;;;;;;;;;;18.56;50.65;99307.25;4457841;32;34015;-85
2022/11/06 11:52:44;;;;;;;;;;;;;;;18.20;51.68;99306.94;4443334;32;33500;-85
2022/11/06 11:55:15;;;;;;;;;;;;;;;18.73;49.67;99299.09;4445171;32;35328;-85
2022/11/06 11:57:43;;;;;;;;;;;;;;;18.63;50.32;99303.59;4455262;32;34628;-87
2022/11/06 12:00:14;;;;;;;;;;;;;;;19.25;48.75;99294.59;4447208;32;34137;-85
2022/11/06 12:02:42;;;;;;;;;;;;;;;19.21;49.06;99301.69;4435513;32;34407;-85
2022/11/06 12:05:11;;;;;;;;;;;;;;;19.09;48.84;99304.53;4449608;32;34138;-85
2022/11/06 12:07:48;;;;;;;;;;;;;;;19.43;48.09;99304.69;4439096;32;33878;-86
2022/11/06 12:10:19;;;;;;;;;;;;;;;19.49;48.11;99296.69;4434801;32;34255;-84
2022/11/06 12:12:48;;;;;;;;;;;;;;;19.50;47.88;99301.06;4450353;32;36096;-86
2022/11/06 12:15:26;;;;;;;;;;;;;;;19.69;47.53;99298.91;4432172;32;35273;-85
2022/11/06 12:17:59;;;;;;;;;;;;;;;19.93;46.35;99298.38;4448764;32;34252;-86
2022/11/06 12:20:33;;;;;;;;;;;;;;;19.88;46.85;99297.59;4428325;32;35158;-86
2022/11/06 12:23:00;;;;;;;;;;;;;;;18.04;50.52;99296.72;4443853;32;35058;-86
2022/11/06 12:25:33;;;;;;;;;;;;;;;18.89;48.45;99300.53;4431349;32;35162;-84
2022/11/06 12:28:01;;;;;;;;;;;;;;;18.66;49.27;99298.28;4425253;32;34616;-86
2022/11/06 12:30:28;;;;;;;;;;;;;;;18.98;48.75;99296.88;4440282;32;34644;-87
2022/11/06 12:33:05;;;;;;;;;;;;;;;18.50;50.20;99298.59;4437306;32;34147;-87
2022/11/06 12:35:34;;;;;;;;;;;;;;;17.86;52.22;99298.72;4451038;32;35313;-87
2022/11/06 12:38:17;;;;;;;;;;;;;;;18.66;49.77;99293.03;4433531;32;33728;-86
2022/11/06 12:40:49;;;;;;;;;;;;;;;18.95;49.27;99300.41;4451800;32;34772;-84
2022/11/06 12:43:16;;;;;;;;;;;;;;;18.80;49.87;99287.56;4436296;32;35338;-88
2022/11/06 12:45:52;;;;;;;;;;;;;;;19.44;48.32;99302.06;4448818;32;32682;-85
2022/11/06 12:48:20;;;;;;;;;;;;;;;18.99;49.55;99300.37;4443031;32;33419;-86
2022/11/06 12:50:50;;;;;;;;;;;;;;;18.95;49.65;99313.56;4448384;32;35047;-85
2022/11/06 12:53:29;;;;;;;;;;;;;;;19.02;49.41;99308.19;4450985;32;35328;-86
2022/11/06 12:55:58;;;;;;;;;;;;;;;18.77;49.18;99311.25;4450544;32;34583;-89
2022/11/06 12:58:40;;;;;;;;;;;;;;;19.41;47.80;99304.75;4464753;32;34453;-90
2022/11/06 13:01:24;;;;;;;;;;;;;;;18.64;49.52;99307.97;4464152;32;34159;-89
2022/11/06 13:03:51;;;;;;;;;;;;;;;18.91;49.20;99306.63;4446790;32;35343;-87
2022/11/06 13:06:19;;;;;;;;;;;;;;;18.67;49.61;99304.41;4464820;32;34539;-85
2022/11/06 13:08:52;;;;;;;;;;;;;;;18.31;50.72;99301.53;4460626;32;33518;-85
2022/11/06 13:11:32;;;;;;;;;;;;;;;18.42;51.07;99310.09;4465211;32;34357;-86
2022/11/06 13:14:18;;;;;;;;;;;;;;;18.78;50.16;99302.47;4461227;32;34330;-86
2022/11/06 13:16:55;;;;;;;;;;;;;;;18.73;50.04;99304.34;4457033;32;34447;-89